Time;durP1;ratioP1;P1;durP2;ratioP2;P2;SDS_P1;SDS_P2;PMS_P1;PMS_P2;Temp;Humidity;BMP_temperature;BMP_pressure;BME280_temperature;BME280_humidity;BME280_pressure;Samples;Min_cycle;Max_cycle;Signal;HPM_P1;HPM_P2
2022/10/18 00:00:09;;;;;;;9.57;6.80;;;;;;;15.51;100.00;99037.69;5213577;22;20631;-91
2022/10/18 00:02:13;;;;;;;15.20;7.40;;;;;;;15.48;99.90;99030.03;5241502;22;20570;-93
2022/10/18 00:04:16;;;;;;;9.30;6.97;;;;;;;15.49;99.74;99036.16;5214252;22;20608;-93
2022/10/18 00:06:19;;;;;;;13.23;6.93;;;;;;;15.50;100.00;99035.16;5215471;22;20578;-92
2022/10/18 00:08:22;;;;;;;10.70;7.00;;;;;;;15.48;100.00;99035.28;5213875;22;20581;-92
2022/10/18 00:10:27;;;;;;;10.40;7.27;;;;;;;15.46;100.00;99031.94;5238991;22;20572;-92
2022/10/18 00:12:32;;;;;;;20.30;7.53;;;;;;;15.45;100.00;99029.41;5213910;22;20570;-92
2022/10/18 00:14:35;;;;;;;11.90;7.23;;;;;;;15.44;100.00;99033.00;5240860;22;20622;-93
2022/10/18 00:16:38;;;;;;;10.63;7.17;;;;;;;15.40;100.00;99032.38;5214308;22;20597;-93
2022/10/18 00:18:42;;;;;;;8.40;6.73;;;;;;;15.39;99.36;99038.56;5214727;22;20603;-93
2022/10/18 00:20:45;;;;;;;9.00;7.07;;;;;;;15.39;99.42;99037.75;5214853;22;20922;-93
2022/10/18 00:22:48;;;;;;;9.60;6.40;;;;;;;15.38;98.66;99038.69;5214963;22;20631;-92
2022/10/18 00:24:51;;;;;;;8.63;6.30;;;;;;;15.36;99.10;99038.81;5212830;22;20578;-92
2022/10/18 00:26:55;;;;;;;12.17;6.90;;;;;;;15.36;100.00;99037.97;5188241;22;20975;-92
2022/10/18 00:29:00;;;;;;;11.37;7.70;;;;;;;15.35;98.68;99037.16;5213952;22;20668;-92
2022/10/18 00:31:12;;;;;;;10.97;6.70;;;;;;;15.34;100.00;99040.72;5214181;22;20585;-92
2022/10/18 00:33:15;;;;;;;11.07;6.77;;;;;;;15.34;100.00;99043.34;5213568;22;20957;-92
2022/10/18 00:35:18;;;;;;;11.50;7.47;;;;;;;15.31;98.76;99038.31;5213909;22;21119;-93
2022/10/18 00:37:21;;;;;;;12.73;7.90;;;;;;;15.28;99.25;99038.53;5188540;22;20621;-92
2022/10/18 00:39:24;;;;;;;15.20;8.80;;;;;;;15.28;99.17;99048.22;5237458;22;20572;-92
2022/10/18 00:41:29;;;;;;;11.73;7.20;;;;;;;15.27;100.00;99049.97;5213766;22;21319;-92
2022/10/18 00:43:33;;;;;;;13.87;7.00;;;;;;;15.25;99.98;99044.00;5213035;22;20578;-91
2022/10/18 00:45:36;;;;;;;15.47;7.87;;;;;;;15.26;100.00;99040.44;5188063;22;20613;-92
2022/10/18 00:47:39;;;;;;;10.53;7.37;;;;;;;15.27;100.00;99054.41;5212573;22;20999;-91
2022/10/18 00:49:46;;;;;;;12.90;8.30;;;;;;;15.26;99.81;99050.09;5213388;22;21124;-93
2022/10/18 00:51:51;;;;;;;9.50;7.40;;;;;;;15.25;99.45;99045.81;5240780;22;20897;-92
2022/10/18 00:53:54;;;;;;;10.03;7.80;;;;;;;15.23;100.00;99058.19;5213041;22;21112;-92
2022/10/18 00:55:57;;;;;;;13.20;7.43;;;;;;;15.23;100.00;99053.78;5187327;22;20692;-91
2022/10/18 00:58:01;;;;;;;11.57;7.00;;;;;;;15.22;100.00;99046.00;5212420;22;20589;-92
2022/10/18 01:00:08;;;;;;;12.60;6.87;;;;;;;15.20;100.00;99050.56;5214204;22;20950;-91
2022/10/18 01:02:13;;;;;;;16.70;7.63;;;;;;;15.19;100.00;99051.50;5238205;22;20582;-92
2022/10/18 01:04:18;;;;;;;12.57;7.07;;;;;;;15.18;99.68;99048.03;5212424;22;20628;-93
2022/10/18 01:06:21;;;;;;;15.30;7.37;;;;;;;15.17;100.00;99045.53;5213254;22;20581;-92
2022/10/18 01:08:34;;;;;;;10.20;7.00;;;;;;;15.15;100.00;99042.09;5212978;22;20588;-91
2022/10/18 01:10:43;;;;;;;16.17;7.00;;;;;;;15.12;99.72;99047.56;5213126;22;20604;-92
2022/10/18 01:12:52;;;;;;;14.00;6.90;;;;;;;15.12;100.00;99044.94;5213337;22;20582;-92
2022/10/18 01:15:00;;;;;;;15.33;9.03;;;;;;;15.10;99.50;99054.75;5211103;22;20914;-91
2022/10/18 01:17:10;;;;;;;12.07;7.30;;;;;;;15.10;99.84;99049.47;5213737;22;20644;-93
2022/10/18 01:19:27;;;;;;;13.07;7.70;;;;;;;15.08;100.00;99041.72;5213537;22;20589;-93
2022/10/18 01:21:36;;;;;;;16.57;7.23;;;;;;;15.09;100.00;99050.41;5187639;22;20594;-93
2022/10/18 01:24:00;;;;;;;11.70;7.60;;;;;;;15.09;100.00;99047.78;5239753;22;20601;-92
2022/10/18 01:26:12;;;;;;;13.00;7.50;;;;;;;15.12;100.00;99052.84;5212784;22;20570;-93
2022/10/18 01:28:44;;;;;;;15.07;8.23;;;;;;;15.12;100.00;99052.84;5211426;22;20669;-91
2022/10/18 01:30:52;;;;;;;10.90;7.30;;;;;;;15.15;100.00;99055.25;5213476;22;20588;-92
2022/10/18 01:32:58;;;;;;;11.03;8.43;;;;;;;15.16;100.00;99054.31;5187999;22;20585;-92
2022/10/18 01:35:03;;;;;;;13.63;7.10;;;;;;;15.12;100.00;99052.84;5213312;22;20589;-92
2022/10/18 01:37:09;;;;;;;12.27;8.20;;;;;;;15.13;100.00;99051.91;5239676;22;20591;-91
2022/10/18 01:39:19;;;;;;;14.53;8.10;;;;;;;15.14;100.00;99050.97;5213013;22;20578;-92
2022/10/18 01:41:23;;;;;;;12.77;7.90;;;;;;;15.14;100.00;99056.22;5188740;22;20577;-91
2022/10/18 01:43:27;;;;;;;9.10;7.57;;;;;;;15.15;100.00;99052.63;5213371;22;21122;-93
2022/10/18 01:45:31;;;;;;;10.07;7.73;;;;;;;15.16;100.00;99055.13;5211191;22;20589;-92
2022/10/18 01:47:36;;;;;;;15.03;7.87;;;;;;;15.17;100.00;99045.53;5213132;22;20575;-91
2022/10/18 01:49:39;;;;;;;15.87;7.87;;;;;;;15.19;100.00;99054.13;5188145;22;20602;-92
2022/10/18 01:51:42;;;;;;;10.80;8.27;;;;;;;15.19;100.00;99052.31;5213290;22;20650;-92
2022/10/18 01:53:45;;;;;;;12.33;8.00;;;;;;;15.21;100.00;99054.84;5213400;22;20663;-92
2022/10/18 01:55:55;;;;;;;10.93;8.10;;;;;;;15.22;100.00;99053.91;5210951;22;20605;-92
2022/10/18 01:58:04;;;;;;;10.07;8.60;;;;;;;15.23;100.00;99047.69;5212787;22;20617;-92
2022/10/18 02:00:12;;;;;;;14.23;8.10;;;;;;;15.22;100.00;99051.28;5213879;22;20586;-93
2022/10/18 02:02:24;;;;;;;11.83;7.40;;;;;;;15.23;100.00;99051.16;5213877;22;20931;-92
2022/10/18 02:04:34;;;;;;;8.93;7.80;;;;;;;15.25;100.00;99057.13;5213229;22;20631;-92
2022/10/18 02:06:42;;;;;;;9.60;7.87;;;;;;;15.25;100.00;99048.44;5213690;22;21128;-92
2022/10/18 02:08:48;;;;;;;13.17;8.30;;;;;;;15.25;100.00;99048.44;5213241;22;20948;-92
2022/10/18 02:10:55;;;;;;;13.23;8.53;;;;;;;15.29;100.00;99049.88;5213894;22;20640;-93
2022/10/18 02:12:59;;;;;;;8.80;7.73;;;;;;;15.29;100.00;99039.34;5214530;22;20560;-92
2022/10/18 02:15:04;;;;;;;12.70;8.17;;;;;;;15.29;100.00;99048.09;5188157;22;20573;-92
2022/10/18 02:17:09;;;;;;;16.53;8.43;;;;;;;15.29;100.00;99050.72;5188434;22;20618;-92
2022/10/18 02:19:16;;;;;;;11.90;7.63;;;;;;;15.27;100.00;99047.34;5215211;22;20635;-92
2022/10/18 02:21:21;;;;;;;12.63;7.60;;;;;;;15.28;100.00;99048.22;5213974;22;20624;-92
2022/10/18 02:23:25;;;;;;;11.07;8.00;;;;;;;15.28;100.00;99045.56;5213990;22;21490;-92
2022/10/18 02:25:30;;;;;;;10.40;7.70;;;;;;;15.25;100.00;99043.16;5213415;22;20580;-92
2022/10/18 02:27:33;;;;;;;7.77;6.07;;;;;;;15.24;100.00;99042.31;5211327;22;20581;-91
2022/10/18 02:29:36;;;;;;;9.17;6.87;;;;;;;15.23;100.00;99031.91;5213016;22;21406;-92
2022/10/18 02:31:44;;;;;;;15.23;8.37;;;;;;;15.23;100.00;99029.28;5213951;22;20619;-92
2022/10/18 02:33:52;;;;;;;8.20;7.37;;;;;;;15.21;100.00;99028.56;5241093;22;20560;-92
2022/10/18 02:35:59;;;;;;;11.40;7.30;;;;;;;15.23;100.00;99037.16;5213616;22;20911;-92
2022/10/18 02:38:05;;;;;;;12.10;8.53;;;;;;;15.20;100.00;99025.09;5213090;22;20615;-92
2022/10/18 02:40:10;;;;;;;12.90;8.23;;;;;;;15.20;100.00;99035.63;5187281;22;20575;-91
2022/10/18 02:42:14;;;;;;;14.83;7.73;;;;;;;15.20;100.00;99040.03;5187460;22;20605;-92
2022/10/18 02:44:17;;;;;;;16.30;7.27;;;;;;;15.20;100.00;99032.97;5212531;22;20642;-92
2022/10/18 02:46:20;;;;;;;10.67;7.77;;;;;;;15.20;100.00;99035.63;5238763;22;20585;-92
2022/10/18 02:48:23;;;;;;;11.70;7.37;;;;;;;15.21;100.00;99026.75;5212738;22;21123;-91
2022/10/18 02:50:26;;;;;;;11.60;6.83;;;;;;;15.20;100.00;99030.34;5213406;22;20582;-92
2022/10/18 02:52:29;;;;;;;11.27;7.47;;;;;;;15.21;100.00;99034.66;5240427;22;20994;-92
2022/10/18 02:54:34;;;;;;;11.90;7.37;;;;;;;15.22;100.00;99030.25;5213538;22;20557;-92
2022/10/18 02:56:37;;;;;;;13.47;7.23;;;;;;;15.22;100.00;99035.50;5213459;22;20575;-91
2022/10/18 02:58:40;;;;;;;10.27;7.70;;;;;;;15.22;100.00;99027.63;5213820;22;20686;-92
2022/10/18 03:00:43;;;;;;;9.20;7.90;;;;;;;15.23;100.00;99026.66;5214170;22;20573;-93
2022/10/18 03:02:47;;;;;;;10.23;7.40;;;;;;;15.23;100.00;99031.91;5215307;22;20554;-92
2022/10/18 03:04:51;;;;;;;9.80;6.80;;;;;;;15.24;100.00;99028.34;5239219;22;20608;-93
2022/10/18 03:06:54;;;;;;;14.50;7.70;;;;;;;15.22;100.00;99028.44;5240139;22;20696;-92
2022/10/18 03:08:57;;;;;;;13.30;7.47;;;;;;;15.20;100.00;99021.66;5241279;22;20580;-91
2022/10/18 03:11:01;;;;;;;20.13;7.93;;;;;;;15.21;100.00;99029.38;5240919;22;20569;-92
2022/10/18 03:13:04;;;;;;;15.30;7.90;;;;;;;15.20;100.00;99022.47;5213178;22;20590;-91
2022/10/18 03:15:08;;;;;;;12.07;7.87;;;;;;;15.21;100.00;99023.31;5187597;22;20672;-91
2022/10/18 03:17:11;;;;;;;9.67;7.37;;;;;;;15.20;100.00;99029.53;5240297;22;20975;-93
2022/10/18 03:19:14;;;;;;;10.10;8.07;;;;;;;15.19;100.00;99023.41;5213971;22;20587;-91
2022/10/18 03:21:17;;;;;;;13.23;7.70;;;;;;;15.20;100.00;99021.66;5241015;22;20619;-92
2022/10/18 03:23:20;;;;;;;17.00;7.67;;;;;;;15.22;100.00;99025.81;5239331;22;20644;-93
2022/10/18 03:25:23;;;;;;;11.97;7.50;;;;;;;15.21;100.00;99028.56;5213825;22;20585;-90
2022/10/18 03:27:28;;;;;;;8.70;7.50;;;;;;;15.21;100.00;99026.75;5214062;22;20891;-92
2022/10/18 03:29:31;;;;;;;11.00;8.03;;;;;;;15.22;100.00;99030.25;5214179;22;21103;-92
2022/10/18 03:31:34;;;;;;;18.33;7.93;;;;;;;15.20;100.00;99024.28;5215111;22;20578;-92
2022/10/18 03:33:37;;;;;;;16.80;8.73;;;;;;;15.20;100.00;99022.47;5214748;22;20638;-92
2022/10/18 03:35:40;;;;;;;10.30;7.80;;;;;;;15.21;100.00;99025.94;5241096;22;20575;-91
2022/10/18 03:37:43;;;;;;;10.83;8.83;;;;;;;15.21;100.00;99031.19;5214389;22;20969;-90
2022/10/18 03:39:46;;;;;;;12.70;7.90;;;;;;;15.20;100.00;99021.66;5214531;22;20932;-92
2022/10/18 03:41:49;;;;;;;10.40;7.80;;;;;;;15.21;100.00;99026.75;5213846;22;20643;-92
2022/10/18 03:43:54;;;;;;;13.67;8.90;;;;;;;15.22;100.00;99023.19;5241527;22;21106;-91
2022/10/18 03:45:57;;;;;;;11.60;8.10;;;;;;;15.23;100.00;99018.75;5212403;22;21121;-91
2022/10/18 03:48:00;;;;;;;9.90;7.60;;;;;;;15.23;100.00;99019.63;5214494;22;20654;-92
2022/10/18 03:50:03;;;;;;;13.40;8.67;;;;;;;15.25;100.00;99022.13;5215200;22;20591;-92
2022/10/18 03:52:06;;;;;;;11.33;8.67;;;;;;;15.23;100.00;99022.25;5241252;22;20630;-91
2022/10/18 03:54:09;;;;;;;12.87;8.73;;;;;;;15.22;100.00;99019.72;5187375;22;20598;-92
2022/10/18 03:56:12;;;;;;;11.93;8.40;;;;;;;15.24;100.00;99025.72;5187895;22;21484;-92
2022/10/18 03:58:15;;;;;;;13.33;8.57;;;;;;;15.23;100.00;99019.63;5187515;22;20614;-93
2022/10/18 04:00:20;;;;;;;10.80;8.37;;;;;;;15.23;100.00;99022.25;5214482;22;20578;-92
2022/10/18 04:02:23;;;;;;;13.33;8.93;;;;;;;15.23;100.00;99024.03;5214615;22;20580;-92
2022/10/18 04:04:26;;;;;;;13.20;8.70;;;;;;;15.24;100.00;99023.09;5213583;22;20609;-92
2022/10/18 04:06:29;;;;;;;14.30;8.27;;;;;;;15.24;100.00;99030.97;5214750;22;20612;-91
2022/10/18 04:08:32;;;;;;;15.30;9.20;;;;;;;15.24;100.00;99030.97;5214917;22;20577;-92
2022/10/18 04:10:37;;;;;;;13.60;9.00;;;;;;;15.21;100.00;99028.56;5214295;22;20551;-91
2022/10/18 04:12:40;;;;;;;15.50;10.30;;;;;;;15.20;100.00;99034.78;5214628;22;20784;-92
2022/10/18 04:14:43;;;;;;;13.80;8.00;;;;;;;15.22;100.00;99035.50;5213615;22;20585;-91
2022/10/18 04:16:47;;;;;;;13.00;9.00;;;;;;;15.21;100.00;99032.00;5188543;22;20581;-91
2022/10/18 04:18:50;;;;;;;12.13;8.40;;;;;;;15.20;100.00;99034.78;5214615;22;20945;-92
2022/10/18 04:20:53;;;;;;;11.70;8.30;;;;;;;15.18;100.00;99024.38;5211933;22;20591;-92
2022/10/18 04:22:57;;;;;;;9.73;8.47;;;;;;;15.19;100.00;99035.72;5213519;22;20634;-94
2022/10/18 04:25:00;;;;;;;12.40;8.30;;;;;;;15.22;100.00;99032.88;5213561;22;20916;-94
2022/10/18 04:27:04;;;;;;;10.07;8.30;;;;;;;15.23;100.00;99024.88;5213405;22;20561;-92
2022/10/18 04:29:07;;;;;;;12.33;8.70;;;;;;;15.23;100.00;99022.25;5216106;22;20913;-92
2022/10/18 04:31:11;;;;;;;10.60;8.53;;;;;;;15.24;100.00;99036.22;5215157;22;20570;-91
2022/10/18 04:33:15;;;;;;;19.47;9.63;;;;;;;15.24;100.00;99038.84;5214334;22;20573;-92
2022/10/18 04:35:18;;;;;;;15.73;8.40;;;;;;;15.25;100.00;99030.03;5241047;22;20884;-93
2022/10/18 04:37:21;;;;;;;12.50;8.20;;;;;;;15.25;100.00;99032.66;5214194;22;20577;-92
2022/10/18 04:39:25;;;;;;;12.00;9.30;;;;;;;15.17;100.00;99030.56;5212541;22;20667;-94
2022/10/18 04:41:28;;;;;;;10.20;8.53;;;;;;;15.16;100.00;99035.91;5214404;22;20580;-95
2022/10/18 04:43:31;;;;;;;11.53;8.70;;;;;;;15.14;100.00;99030.75;5239056;22;20641;-93
2022/10/18 04:45:35;;;;;;;16.17;8.60;;;;;;;15.17;100.00;99041.09;5187828;22;20624;-93
2022/10/18 04:47:38;;;;;;;15.00;8.47;;;;;;;15.19;100.00;99043.59;5213148;22;20577;-93
2022/10/18 04:49:42;;;;;;;12.90;8.40;;;;;;;15.18;100.00;99042.78;5213185;22;20614;-93
2022/10/18 04:51:46;;;;;;;12.63;9.37;;;;;;;15.19;100.00;99051.50;5214321;22;20582;-94
2022/10/18 04:53:50;;;;;;;12.20;8.67;;;;;;;15.20;100.00;99046.13;5218049;22;20670;-93
2022/10/18 04:55:53;;;;;;;10.73;8.03;;;;;;;15.23;100.00;99042.41;5237690;22;20621;-92
2022/10/18 04:57:56;;;;;;;19.00;9.00;;;;;;;15.25;100.00;99043.16;5212539;22;20582;-91
2022/10/18 04:59:59;;;;;;;14.90;9.17;;;;;;;15.25;100.00;99045.81;5239430;22;21197;-92
2022/10/18 05:02:03;;;;;;;9.80;8.73;;;;;;;15.25;100.00;99043.16;5187923;22;20629;-91
2022/10/18 05:04:06;;;;;;;10.23;8.03;;;;;;;15.25;100.00;99049.25;5211621;22;21186;-93
2022/10/18 05:06:13;;;;;;;20.40;9.67;;;;;;;15.27;100.00;99042.09;5214115;22;20627;-93
2022/10/18 05:08:16;;;;;;;21.67;11.23;;;;;;;15.27;100.00;99051.78;5190223;22;20586;-94
2022/10/18 05:10:19;;;;;;;16.23;9.23;;;;;;;15.28;100.00;99046.41;5239807;22;20633;-95
2022/10/18 05:12:23;;;;;;;14.67;8.97;;;;;;;15.28;100.00;99050.84;5214821;22;20668;-96
2022/10/18 05:14:28;;;;;;;17.53;8.50;;;;;;;15.30;100.00;99049.75;5215797;22;21330;-94
2022/10/18 05:16:31;;;;;;;15.70;9.30;;;;;;;15.33;100.00;99051.34;5211627;22;20593;-93
2022/10/18 05:18:35;;;;;;;11.53;8.77;;;;;;;15.34;100.00;99050.41;5212857;22;20608;-93
2022/10/18 05:20:38;;;;;;;12.83;8.50;;;;;;;15.34;100.00;99051.22;5212979;22;20626;-93
2022/10/18 05:22:42;;;;;;;16.40;8.80;;;;;;;15.35;100.00;99052.06;5239684;22;20625;-94
2022/10/18 05:24:45;;;;;;;11.97;8.43;;;;;;;15.34;100.00;99045.13;5212402;22;20677;-93
2022/10/18 05:26:48;;;;;;;9.60;8.70;;;;;;;15.36;100.00;99045.84;5212017;22;20583;-94
2022/10/18 05:28:55;;;;;;;12.30;8.77;;;;;;;15.36;100.00;99051.94;5213587;22;20588;-93
2022/10/18 05:31:00;;;;;;;12.73;8.97;;;;;;;15.36;100.00;99048.50;5238344;22;20668;-93
2022/10/18 05:33:04;;;;;;;10.90;8.90;;;;;;;15.38;100.00;99047.44;5213367;22;20585;-93
2022/10/18 05:35:07;;;;;;;18.00;8.87;;;;;;;15.39;100.00;99046.47;5213050;22;20721;-94
2022/10/18 05:37:11;;;;;;;14.60;8.60;;;;;;;15.40;100.00;99042.06;5213108;22;20582;-91
2022/10/18 05:39:15;;;;;;;10.87;8.20;;;;;;;15.39;100.00;99043.00;5186916;22;20618;-93
2022/10/18 05:41:18;;;;;;;11.83;8.47;;;;;;;15.39;100.00;99050.91;5239065;22;20582;-92
2022/10/18 05:43:21;;;;;;;10.20;8.37;;;;;;;15.39;100.00;99043.00;5239838;22;20626;-93
2022/10/18 05:45:24;;;;;;;16.00;8.77;;;;;;;15.38;100.00;99039.56;5238929;22;20589;-92
2022/10/18 05:47:27;;;;;;;11.20;8.10;;;;;;;15.35;100.00;99038.91;5213145;22;20585;-94
2022/10/18 05:49:30;;;;;;;14.70;9.10;;;;;;;15.36;100.00;99038.81;5212976;22;20966;-93
2022/10/18 05:51:34;;;;;;;13.23;7.87;;;;;;;15.35;100.00;99041.53;5243607;22;20570;-96
2022/10/18 05:53:37;;;;;;;14.73;9.17;;;;;;;15.34;100.00;99037.25;5214787;22;20586;-93
2022/10/18 05:55:42;;;;;;;10.87;8.70;;;;;;;15.32;100.00;99033.88;5212312;22;20584;-92
2022/10/18 05:57:49;;;;;;;16.07;9.70;;;;;;;15.27;100.00;99039.47;5213989;22;20976;-91
2022/10/18 05:59:52;;;;;;;12.03;8.70;;;;;;;15.23;100.00;99038.03;5214567;22;20674;-92
2022/10/18 06:01:55;;;;;;;12.37;8.70;;;;;;;15.21;100.00;99036.44;5214192;22;20585;-93
2022/10/18 06:03:58;;;;;;;10.20;8.07;;;;;;;15.21;100.00;99031.19;5213263;22;20659;-93
2022/10/18 06:06:01;;;;;;;11.07;8.83;;;;;;;15.21;100.00;99033.81;5240583;22;20630;-93
2022/10/18 06:08:05;;;;;;;11.00;7.90;;;;;;;15.21;100.00;99037.28;5214069;22;21125;-92
2022/10/18 06:10:12;;;;;;;12.90;8.40;;;;;;;15.20;100.00;99038.25;5213801;22;20668;-91
2022/10/18 06:12:16;;;;;;;11.77;8.60;;;;;;;15.21;100.00;99042.53;5187619;22;20586;-93
2022/10/18 06:14:19;;;;;;;13.40;10.60;;;;;;;15.23;100.00;99047.69;5213676;22;20617;-92
2022/10/18 06:16:24;;;;;;;13.23;9.23;;;;;;;15.22;100.00;99048.66;5244057;22;20633;-92
2022/10/18 06:18:34;;;;;;;15.70;9.83;;;;;;;15.24;100.00;99047.56;5214771;22;20588;-93
2022/10/18 06:20:37;;;;;;;13.80;9.00;;;;;;;15.26;100.00;99050.09;5212674;22;20644;-91
2022/10/18 06:22:40;;;;;;;12.63;8.30;;;;;;;15.28;100.00;99048.22;5241658;22;20577;-93
2022/10/18 06:24:43;;;;;;;13.63;8.80;;;;;;;15.30;100.00;99052.38;5188296;22;20582;-92
2022/10/18 06:26:46;;;;;;;17.20;9.07;;;;;;;15.35;100.00;99052.91;5241225;22;20569;-91
2022/10/18 06:28:51;;;;;;;10.90;8.47;;;;;;;15.43;100.00;99052.38;5190660;22;20635;-92
2022/10/18 06:30:54;;;;;;;11.63;8.90;;;;;;;15.48;100.00;99050.22;5216672;22;20643;-91
2022/10/18 06:32:59;;;;;;;13.20;8.70;;;;;;;15.52;100.00;99055.16;5216749;22;20577;-92
2022/10/18 06:35:02;;;;;;;15.63;10.70;;;;;;;15.54;100.00;99060.31;5190969;22;20579;-91
2022/10/18 06:37:05;;;;;;;14.47;11.00;;;;;;;15.55;100.00;99069.88;5215368;22;20884;-94
2022/10/18 06:39:10;;;;;;;14.47;10.90;;;;;;;15.56;100.00;99065.34;5216162;22;20586;-93
2022/10/18 06:41:16;;;;;;;17.43;10.00;;;;;;;15.56;100.00;99067.97;5215478;22;20573;-93
2022/10/18 06:43:21;;;;;;;14.83;10.17;;;;;;;15.60;100.00;99074.66;5239670;22;20575;-94
2022/10/18 06:45:26;;;;;;;13.87;10.37;;;;;;;15.61;100.00;99071.09;5246222;22;20695;-96
2022/10/18 06:47:31;;;;;;;20.83;15.53;;;;;;;15.62;100.00;99072.78;5222109;22;20568;-96
2022/10/18 06:50:11;;;;;;;19.47;10.90;;;;;;;15.62;100.00;99061.41;5231975;22;20636;-94
2022/10/18 06:52:36;;;;;;;13.30;10.00;;;;;;;15.67;100.00;99061.94;5200700;22;20606;-94
2022/10/18 06:54:51;;;;;;;15.07;10.13;;;;;;;15.73;100.00;99064.94;5234919;22;20601;-95
2022/10/18 06:57:01;;;;;;;13.93;9.63;;;;;;;15.78;100.00;99062.81;5233649;22;20700;-95
2022/10/18 06:59:11;;;;;;;16.47;9.40;;;;;;;15.90;100.00;99069.81;5231769;22;20596;-93
2022/10/18 07:01:19;;;;;;;10.40;9.20;;;;;;;15.96;100.00;99074.59;5203325;22;20617;-94
2022/10/18 07:03:22;;;;;;;13.73;9.97;;;;;;;16.06;100.00;99080.88;5214473;22;20938;-95
2022/10/18 07:05:26;;;;;;;25.20;12.60;;;;;;;16.10;100.00;99083.16;5239385;22;20580;-92
2022/10/18 07:07:30;;;;;;;15.47;9.47;;;;;;;16.16;100.00;99081.84;5217551;22;21508;-94
2022/10/18 07:09:35;;;;;;;13.53;9.80;;;;;;;16.17;100.00;99080.91;5164605;22;20584;-95
2022/10/18 07:11:38;;;;;;;15.13;10.57;;;;;;;16.19;100.00;99094.78;5213670;22;20562;-94
2022/10/18 07:13:43;;;;;;;16.23;10.43;;;;;;;16.21;100.00;99085.84;5213225;22;20585;-92
2022/10/18 07:15:47;;;;;;;15.70;9.97;;;;;;;16.23;100.00;99096.28;5165893;22;20583;-94
2022/10/18 07:17:53;;;;;;;14.10;9.30;;;;;;;16.22;100.00;99094.59;5166916;22;20691;-95
2022/10/18 07:19:56;;;;;;;10.90;8.73;;;;;;;16.20;100.00;99083.31;5190117;22;20582;-96
2022/10/18 07:22:01;;;;;;;14.20;9.33;;;;;;;16.22;100.00;99084.06;5218717;22;20581;-96
2022/10/18 07:24:04;;;;;;;13.47;9.30;;;;;;;16.30;100.00;99089.63;5192709;22;20640;-96
2022/10/18 07:26:14;;;;;;;16.73;10.10;;;;;;;16.30;100.00;99094.88;5243459;22;20610;-96
2022/10/18 07:28:17;;;;;;;11.47;9.37;;;;;;;16.36;100.00;99097.88;5218932;22;20588;-96
2022/10/18 07:30:21;;;;;;;12.33;8.40;;;;;;;16.40;100.00;99103.75;5219360;22;20578;-95
2022/10/18 07:32:25;;;;;;;16.40;9.30;;;;;;;16.42;100.00;99102.69;5192378;22;20594;-96
2022/10/18 07:34:30;;;;;;;16.47;8.90;;;;;;;16.49;100.00;99105.69;5192326;22;20705;-96
2022/10/18 07:36:34;;;;;;;12.50;9.40;;;;;;;16.50;100.00;99098.50;5217646;22;20578;-95
2022/10/18 07:38:41;;;;;;;14.50;9.73;;;;;;;16.57;100.00;99097.09;5166863;22;20650;-95
2022/10/18 07:40:46;;;;;;;14.07;9.20;;;;;;;16.62;100.00;99100.19;5191666;22;20608;-96
2022/10/18 07:42:50;;;;;;;12.27;8.87;;;;;;;16.68;100.00;99109.44;5217100;22;20569;-95
2022/10/18 07:44:53;;;;;;;17.20;8.60;;;;;;;16.73;100.00;99107.28;5215237;22;20585;-92
2022/10/18 07:46:56;;;;;;;11.63;9.03;;;;;;;16.73;100.00;99109.91;5214279;22;20598;-94
2022/10/18 07:49:00;;;;;;;14.83;10.17;;;;;;;16.77;100.00;99112.22;5213961;22;20573;-95
2022/10/18 07:51:05;;;;;;;13.07;9.73;;;;;;;16.79;100.00;99109.44;5215056;22;20581;-94
2022/10/18 07:53:08;;;;;;;13.80;9.97;;;;;;;16.81;100.00;99121.56;5214838;22;20577;-94
2022/10/18 07:55:11;;;;;;;16.27;9.27;;;;;;;16.78;100.00;99113.91;5213402;22;20626;-96
2022/10/18 07:57:14;;;;;;;12.03;9.30;;;;;;;16.79;100.00;99104.19;5214783;22;20587;-95
2022/10/18 07:59:18;;;;;;;12.80;9.10;;;;;;;16.82;100.00;99101.31;5241228;22;20615;-95
2022/10/18 08:01:22;;;;;;;13.70;8.67;;;;;;;16.88;100.00;99111.38;5241991;22;20609;-94
2022/10/18 08:03:25;;;;;;;11.63;8.60;;;;;;;16.83;100.00;99106.47;5217308;22;20646;-96
2022/10/18 08:05:29;;;;;;;20.10;9.10;;;;;;;16.83;100.00;99106.47;5216407;22;20575;-95
2022/10/18 08:07:34;;;;;;;13.43;8.93;;;;;;;16.90;100.00;99106.81;5217175;22;20666;-95
2022/10/18 08:09:39;;;;;;;13.67;8.87;;;;;;;16.95;100.00;99102.88;5216615;22;20586;-94
2022/10/18 08:11:42;;;;;;;16.27;9.10;;;;;;;16.97;100.00;99097.50;5217073;22;20581;-94
2022/10/18 08:13:45;;;;;;;12.93;8.27;;;;;;;17.02;100.00;99104.09;5216705;22;20670;-96
2022/10/18 08:15:48;;;;;;;10.60;9.17;;;;;;;17.09;100.00;99103.50;5243185;22;20886;-94
2022/10/18 08:17:52;;;;;;;12.90;9.40;;;;;;;17.19;100.00;99111.53;5188377;22;20570;-94
2022/10/18 08:19:57;;;;;;;12.93;9.10;;;;;;;17.31;100.00;99110.59;5216370;22;20665;-96
2022/10/18 08:22:17;;;;;;;16.83;9.30;;;;;;;17.43;100.00;99109.63;5227505;22;20591;-96
2022/10/18 08:24:25;;;;;;;15.73;9.57;;;;;;;17.54;100.00;99111.25;5196072;22;20573;-96
2022/10/18 08:26:29;;;;;;;12.43;8.70;;;;;;;17.63;100.00;99117.59;5190913;22;20679;-96
2022/10/18 08:28:35;;;;;;;12.03;8.40;;;;;;;17.75;100.00;99127.19;5216791;22;20647;-96
2022/10/18 08:30:47;;;;;;;14.23;9.30;;;;;;;17.90;100.00;99129.41;5224473;22;20611;-93
2022/10/18 08:32:59;;;;;;;13.40;8.07;;;;;;;18.11;100.00;99133.78;5226719;22;20549;-96
2022/10/18 08:35:55;;;;;;;14.87;8.90;;;;;;;18.26;100.00;99142.28;5233557;22;20558;-94
2022/10/18 08:38:21;;;;;;;13.70;7.90;;;;;;;18.37;100.00;99135.13;5248766;22;20590;-96
2022/10/18 08:54:14;;;;;;;8.50;6.87;;;;;;;19.23;97.09;99143.53;5245612;22;20584;-96
2022/10/18 08:56:23;;;;;;;14.83;6.90;;;;;;;19.25;98.78;99140.75;5191934;22;20901;-94
2022/10/18 08:58:34;;;;;;;7.97;6.57;;;;;;;19.23;97.89;99142.69;5220084;22;21026;-95
2022/10/18 09:00:40;;;;;;;11.67;6.57;;;;;;;19.25;98.50;99154.00;5222767;22;20578;-95
2022/10/18 09:02:56;;;;;;;13.10;7.10;;;;;;;19.22;98.84;99141.84;5218467;22;20566;-95
2022/10/18 09:05:07;;;;;;;6.83;6.13;;;;;;;19.22;98.70;99148.97;5169457;23;20583;-96
2022/10/18 09:07:26;;;;;;;10.80;7.30;;;;;;;19.25;98.09;99148.69;5168392;23;20600;-93
2022/10/18 09:09:38;;;;;;;8.93;6.40;;;;;;;19.29;98.29;99148.28;5169474;23;20601;-95
2022/10/18 09:11:50;;;;;;;13.33;7.70;;;;;;;19.42;99.56;99147.09;5193334;22;20605;-96
2022/10/18 09:14:17;;;;;;;10.03;7.10;;;;;;;19.53;99.22;99151.44;5169691;23;20581;-94
2022/10/18 09:16:24;;;;;;;8.10;6.80;;;;;;;19.67;96.42;99151.09;5173033;22;20598;-96
2022/10/18 09:18:49;;;;;;;11.07;6.77;;;;;;;19.75;95.70;99160.00;5196278;22;21176;-96
2022/10/18 09:20:57;;;;;;;8.53;6.83;;;;;;;19.87;95.08;99161.59;5172923;23;20650;-96
2022/10/18 09:23:05;;;;;;;8.90;6.13;;;;;;;19.89;96.02;99162.31;5197055;22;20608;-96
2022/10/18 09:25:18;;;;;;;7.83;6.43;;;;;;;19.87;93.91;99164.25;5197611;22;20652;-95
2022/10/18 09:27:30;;;;;;;8.90;5.50;;;;;;;19.87;94.11;99164.25;5150867;23;20573;-96
2022/10/18 09:29:57;;;;;;;6.67;5.33;;;;;;;19.90;92.94;99164.00;5175008;23;20575;-95
2022/10/18 09:32:07;;;;;;;9.40;6.13;;;;;;;20.04;92.04;99164.44;5166549;23;20665;-96
2022/10/18 09:34:14;;;;;;;7.30;5.10;;;;;;;20.13;90.84;99176.03;5167018;23;20574;-93
2022/10/18 09:36:21;;;;;;;10.00;6.50;;;;;;;20.22;93.01;99167.25;5168520;23;20609;-91
2022/10/18 09:38:30;;;;;;;11.30;6.20;;;;;;;20.42;91.45;99167.13;5169493;23;20571;-96
2022/10/18 09:40:37;;;;;;;7.93;5.90;;;;;;;20.84;91.89;99182.63;5170369;23;20576;-94
2022/10/18 09:42:52;;;;;;;8.77;6.20;;;;;;;21.10;90.28;99184.53;5167930;23;20608;-95
2022/10/18 09:44:59;;;;;;;6.97;5.23;;;;;;;21.29;89.50;99181.84;5193349;22;20636;-95
2022/10/18 09:47:05;;;;;;;7.00;5.10;;;;;;;21.30;86.63;99172.88;5169584;23;21114;-95
2022/10/18 09:49:15;;;;;;;22.47;5.30;;;;;;;21.18;86.04;99171.38;5169604;23;20569;-94
2022/10/18 09:51:21;;;;;;;6.73;6.00;;;;;;;21.19;87.08;99167.75;5166164;23;20946;-95
2022/10/18 09:53:34;;;;;;;6.40;4.80;;;;;;;21.15;85.40;99170.84;5168734;23;20580;-95